Time;durP1;ratioP1;P1;durP2;ratioP2;P2;SDS_P1;SDS_P2;PMS_P1;PMS_P2;Temp;Humidity;BMP_temperature;BMP_pressure;BME280_temperature;BME280_humidity;BME280_pressure;Samples;Min_cycle;Max_cycle;Signal;HPM_P1;HPM_P2
2024/01/06 00:01:16;;;;;;;;;;;6.30;99.90;;;;;;5060410;28;19920;-73
2024/01/06 00:03:43;;;;;;;;;;;6.20;99.90;;;;;;5060618;28;19924;-73
2024/01/06 00:06:12;;;;;;;;;;;6.20;99.90;;;;;;5066740;28;19924;-73
2024/01/06 00:08:38;;;;;;;;;;;6.20;99.90;;;;;;5066259;28;19977;-72
2024/01/06 00:11:05;;;;;;;;;;;6.20;99.90;;;;;;5067318;28;20500;-72
2024/01/06 00:13:31;;;;;;;;;;;6.20;99.90;;;;;;5067069;28;19952;-72
2024/01/06 00:15:58;;;;;;;;;;;6.20;99.90;;;;;;5066261;28;20306;-72
2024/01/06 00:18:26;;;;;;;;;;;6.20;99.90;;;;;;5064690;28;19935;-73
2024/01/06 00:20:52;;;;;;;;;;;6.20;99.90;;;;;;5068799;28;19924;-72
2024/01/06 00:23:19;;;;;;;;;;;6.20;99.90;;;;;;5063533;28;20031;-72
2024/01/06 00:25:46;;;;;;;;;;;6.20;99.90;;;;;;5067866;28;19924;-72
2024/01/06 00:28:12;;;;;;;;;;;6.20;99.90;;;;;;5063618;28;19924;-72
2024/01/06 00:30:39;;;;;;;;;;;6.10;99.90;;;;;;5062772;28;20675;-73
2024/01/06 00:33:05;;;;;;;;;;;6.20;99.90;;;;;;5066715;28;19924;-73
2024/01/06 00:35:33;;;;;;;;;;;6.20;99.90;;;;;;5066618;28;20034;-72
2024/01/06 00:38:01;;;;;;;;;;;6.10;99.90;;;;;;5064400;28;19924;-71
2024/01/06 00:40:27;;;;;;;;;;;6.20;99.90;;;;;;5065687;28;19944;-73
2024/01/06 00:42:54;;;;;;;;;;;6.10;99.90;;;;;;5070453;28;20444;-73
2024/01/06 00:45:20;;;;;;;;;;;6.10;99.90;;;;;;5061272;28;19977;-72
2024/01/06 00:47:47;;;;;;;;;;;6.10;99.90;;;;;;5068077;28;19928;-73
2024/01/06 00:50:14;;;;;;;;;;;6.10;99.90;;;;;;5065983;28;19924;-72
2024/01/06 00:52:42;;;;;;;;;;;6.10;99.90;;;;;;5063659;28;19931;-73
2024/01/06 00:55:09;;;;;;;;;;;6.10;99.90;;;;;;5066583;28;19943;-73
2024/01/06 00:57:35;;;;;;;;;;;6.10;99.90;;;;;;5060256;28;19978;-72
2024/01/06 01:00:02;;;;;;;;;;;6.10;99.90;;;;;;5068389;28;19967;-73
2024/01/06 01:02:28;;;;;;;;;;;6.10;99.90;;;;;;5063615;28;19951;-70
2024/01/06 01:04:55;;;;;;;;;;;6.00;99.90;;;;;;5064528;28;20405;-71
2024/01/06 01:07:21;;;;;;;;;;;6.10;99.90;;;;;;5065113;28;19924;-72
2024/01/06 01:09:49;;;;;;;;;;;6.10;99.90;;;;;;5065392;28;20390;-72
2024/01/06 01:12:16;;;;;;;;;;;6.10;99.90;;;;;;5061622;28;19924;-72
2024/01/06 01:14:42;;;;;;;;;;;6.00;99.90;;;;;;5062950;28;19928;-72
2024/01/06 01:17:09;;;;;;;;;;;6.00;99.90;;;;;;5063872;28;20414;-72
2024/01/06 01:19:35;;;;;;;;;;;6.00;99.90;;;;;;5065214;28;19928;-73
2024/01/06 01:22:02;;;;;;;;;;;6.00;99.90;;;;;;5064249;28;19924;-72
2024/01/06 01:24:28;;;;;;;;;;;6.00;99.90;;;;;;5064445;28;19928;-72
2024/01/06 01:26:56;;;;;;;;;;;6.00;99.90;;;;;;5067158;28;19935;-73
2024/01/06 01:29:23;;;;;;;;;;;6.00;99.90;;;;;;5065384;28;19929;-73
2024/01/06 01:31:49;;;;;;;;;;;6.00;99.90;;;;;;5062154;28;20464;-73
2024/01/06 01:34:16;;;;;;;;;;;6.00;99.90;;;;;;5064774;28;19924;-71
2024/01/06 01:36:42;;;;;;;;;;;6.00;99.90;;;;;;5066845;28;19970;-73
2024/01/06 01:39:09;;;;;;;;;;;6.00;99.90;;;;;;5061034;28;19928;-73
2024/01/06 01:41:36;;;;;;;;;;;5.90;99.90;;;;;;5064100;28;19924;-74
2024/01/06 01:44:04;;;;;;;;;;;5.90;99.90;;;;;;5067788;28;19981;-73
2024/01/06 01:46:31;;;;;;;;;;;6.00;99.90;;;;;;5057534;28;19924;-72
2024/01/06 01:48:58;;;;;;;;;;;6.00;99.90;;;;;;5064018;28;19924;-73
2024/01/06 01:51:27;;;;;;;;;;;5.90;99.90;;;;;;5064915;28;19928;-72
2024/01/06 01:53:54;;;;;;;;;;;5.90;99.90;;;;;;5062358;28;19935;-73
2024/01/06 01:56:20;;;;;;;;;;;5.90;99.90;;;;;;5060837;28;19930;-73
2024/01/06 01:58:47;;;;;;;;;;;5.90;99.90;;;;;;5064777;28;20380;-73
2024/01/06 02:01:15;;;;;;;;;;;5.90;99.90;;;;;;5061817;28;19924;-73
2024/01/06 02:03:43;;;;;;;;;;;5.90;99.90;;;;;;5062392;28;20329;-72
2024/01/06 02:06:09;;;;;;;;;;;5.80;99.90;;;;;;5061919;28;19931;-73
2024/01/06 02:08:36;;;;;;;;;;;5.90;99.90;;;;;;5060140;28;20527;-71
2024/01/06 02:11:04;;;;;;;;;;;5.90;99.90;;;;;;5064049;28;20302;-72
2024/01/06 02:13:33;;;;;;;;;;;5.90;99.90;;;;;;5063660;28;19995;-71
2024/01/06 02:16:00;;;;;;;;;;;5.90;99.90;;;;;;5061906;28;20385;-72
2024/01/06 02:18:27;;;;;;;;;;;5.90;99.90;;;;;;5063234;28;19935;-73
2024/01/06 02:20:58;;;;;;;;;;;5.90;99.90;;;;;;5066045;28;19924;-71
2024/01/06 02:23:26;;;;;;;;;;;5.80;99.90;;;;;;5065276;28;19928;-73
2024/01/06 02:25:52;;;;;;;;;;;5.90;99.90;;;;;;5066608;28;19954;-73
2024/01/06 02:28:19;;;;;;;;;;;5.90;99.90;;;;;;5067505;28;20724;-73
2024/01/06 02:30:45;;;;;;;;;;;5.80;99.90;;;;;;5064226;28;19940;-72
2024/01/06 02:33:12;;;;;;;;;;;5.80;99.90;;;;;;5065209;28;20752;-73
2024/01/06 02:35:39;;;;;;;;;;;5.80;99.90;;;;;;5064799;28;19973;-71
2024/01/06 02:38:06;;;;;;;;;;;5.80;99.90;;;;;;5063409;28;20694;-71
2024/01/06 02:40:34;;;;;;;;;;;5.80;99.90;;;;;;5062764;28;19928;-72
2024/01/06 02:43:01;;;;;;;;;;;5.80;99.90;;;;;;5062596;28;19924;-72
2024/01/06 02:45:27;;;;;;;;;;;5.80;99.90;;;;;;5059740;28;19928;-72
2024/01/06 02:47:54;;;;;;;;;;;5.80;99.90;;;;;;5062233;28;19932;-72
2024/01/06 02:50:20;;;;;;;;;;;5.80;99.90;;;;;;5063651;28;20305;-72
2024/01/06 02:52:47;;;;;;;;;;;5.80;99.90;;;;;;5062594;28;20364;-72
2024/01/06 02:55:14;;;;;;;;;;;5.80;99.90;;;;;;5061703;28;19924;-72
2024/01/06 02:57:42;;;;;;;;;;;5.70;99.90;;;;;;5060131;28;19928;-72
2024/01/06 03:00:09;;;;;;;;;;;5.70;99.90;;;;;;5064251;28;19932;-73
2024/01/06 03:02:37;;;;;;;;;;;5.70;99.90;;;;;;5063200;28;20465;-73
2024/01/06 03:05:04;;;;;;;;;;;5.70;99.90;;;;;;5063084;28;19934;-72
2024/01/06 03:07:30;;;;;;;;;;;5.70;99.90;;;;;;5062562;28;19924;-72
2024/01/06 03:09:57;;;;;;;;;;;5.70;99.90;;;;;;5059874;28;20362;-73
2024/01/06 03:12:23;;;;;;;;;;;5.70;99.90;;;;;;5059677;28;19924;-72
2024/01/06 03:14:51;;;;;;;;;;;5.70;99.90;;;;;;5059844;28;19934;-72
2024/01/06 03:17:18;;;;;;;;;;;5.70;99.90;;;;;;5062826;28;19956;-74
2024/01/06 03:19:45;;;;;;;;;;;5.70;99.90;;;;;;5056021;28;19928;-73
2024/01/06 03:22:11;;;;;;;;;;;5.70;99.90;;;;;;5060962;28;19924;-72
2024/01/06 03:24:38;;;;;;;;;;;5.60;99.90;;;;;;5063524;28;20664;-73
2024/01/06 03:27:05;;;;;;;;;;;5.70;99.90;;;;;;5065232;28;19931;-75
2024/01/06 03:29:31;;;;;;;;;;;5.70;99.90;;;;;;5063826;28;19925;-65
2024/01/06 03:31:59;;;;;;;;;;;5.60;99.90;;;;;;5060448;28;20372;-66
2024/01/06 03:34:25;;;;;;;;;;;5.60;99.90;;;;;;5061989;28;19928;-66
2024/01/06 03:36:52;;;;;;;;;;;5.70;99.90;;;;;;5063582;28;19950;-67
2024/01/06 03:39:19;;;;;;;;;;;5.60;99.90;;;;;;5061729;28;19969;-67
2024/01/06 03:41:45;;;;;;;;;;;5.70;99.90;;;;;;5061584;28;19924;-65
2024/01/06 03:44:11;;;;;;;;;;;5.70;99.90;;;;;;5062095;28;20484;-67
2024/01/06 03:46:38;;;;;;;;;;;5.60;99.90;;;;;;5062639;28;19950;-67
2024/01/06 03:49:06;;;;;;;;;;;5.60;99.90;;;;;;5061932;28;19928;-68
2024/01/06 03:51:32;;;;;;;;;;;5.60;99.90;;;;;;5067288;28;19928;-67
2024/01/06 03:53:59;;;;;;;;;;;5.60;99.90;;;;;;5059034;28;19924;-67
2024/01/06 03:56:25;;;;;;;;;;;5.60;99.90;;;;;;5061271;28;20018;-67
2024/01/06 03:58:52;;;;;;;;;;;5.60;99.90;;;;;;5064598;28;19928;-67
2024/01/06 04:01:18;;;;;;;;;;;5.60;99.90;;;;;;5061466;28;19924;-66
2024/01/06 04:03:45;;;;;;;;;;;5.60;99.90;;;;;;5063850;28;19928;-66
2024/01/06 04:06:13;;;;;;;;;;;5.60;99.90;;;;;;5059750;28;19924;-67
2024/01/06 04:08:40;;;;;;;;;;;5.50;99.90;;;;;;5061576;28;19929;-66
2024/01/06 04:11:06;;;;;;;;;;;5.60;99.90;;;;;;5063422;28;19924;-66
2024/01/06 04:13:33;;;;;;;;;;;5.60;99.90;;;;;;5062616;28;19935;-66
2024/01/06 04:15:59;;;;;;;;;;;5.60;99.90;;;;;;5059310;28;19945;-67
2024/01/06 04:18:26;;;;;;;;;;;5.60;99.90;;;;;;5062946;28;19933;-67
2024/01/06 04:20:52;;;;;;;;;;;5.60;99.90;;;;;;5061859;28;19934;-67
2024/01/06 04:23:20;;;;;;;;;;;5.60;99.90;;;;;;5060867;28;19924;-67
2024/01/06 04:25:47;;;;;;;;;;;5.50;99.90;;;;;;5063902;28;20430;-67
2024/01/06 04:28:13;;;;;;;;;;;5.60;99.90;;;;;;5059606;28;20025;-66
2024/01/06 04:30:40;;;;;;;;;;;5.60;99.90;;;;;;5060511;28;19932;-67
2024/01/06 04:33:07;;;;;;;;;;;5.60;99.90;;;;;;5061540;28;19924;-67
2024/01/06 04:35:33;;;;;;;;;;;5.60;99.90;;;;;;5060234;28;19960;-67
2024/01/06 04:38:00;;;;;;;;;;;5.50;99.90;;;;;;5061468;28;20584;-66
2024/01/06 04:40:28;;;;;;;;;;;5.50;99.90;;;;;;5061670;28;19932;-66
2024/01/06 04:42:54;;;;;;;;;;;5.60;99.90;;;;;;5063609;28;19985;-67
2024/01/06 04:45:23;;;;;;;;;;;5.50;99.90;;;;;;5061999;28;20015;-66
2024/01/06 04:47:50;;;;;;;;;;;5.50;99.90;;;;;;5060769;28;20459;-67
2024/01/06 04:50:17;;;;;;;;;;;5.50;99.90;;;;;;5066214;28;19989;-67
2024/01/06 04:52:43;;;;;;;;;;;5.50;99.90;;;;;;5068322;28;19928;-67
2024/01/06 04:55:10;;;;;;;;;;;5.50;99.90;;;;;;5066659;28;20411;-67
2024/01/06 04:57:38;;;;;;;;;;;5.50;99.90;;;;;;5066541;28;20518;-66
2024/01/06 05:00:05;;;;;;;;;;;5.50;99.90;;;;;;5070856;28;19978;-66
2024/01/06 05:02:31;;;;;;;;;;;5.50;99.90;;;;;;5062817;28;19924;-66
2024/01/06 05:04:58;;;;;;;;;;;5.50;99.90;;;;;;5067477;28;19985;-67
2024/01/06 05:07:24;;;;;;;;;;;5.50;99.90;;;;;;5066784;28;20015;-66
2024/01/06 05:09:51;;;;;;;;;;;5.50;99.90;;;;;;5068777;28;19924;-67
2024/01/06 05:12:17;;;;;;;;;;;5.50;99.90;;;;;;5059871;28;19982;-67
2024/01/06 05:14:45;;;;;;;;;;;5.50;99.90;;;;;;5067373;28;19931;-67
2024/01/06 05:17:11;;;;;;;;;;;5.50;99.90;;;;;;5063528;28;19928;-67
2024/01/06 05:19:38;;;;;;;;;;;5.50;99.90;;;;;;5064864;28;19969;-67
2024/01/06 05:22:05;;;;;;;;;;;5.50;99.90;;;;;;5064047;28;19932;-66
2024/01/06 05:24:31;;;;;;;;;;;5.50;99.90;;;;;;5063104;28;21047;-67
2024/01/06 05:26:58;;;;;;;;;;;5.50;99.90;;;;;;5064533;28;19982;-67
2024/01/06 05:29:25;;;;;;;;;;;5.50;99.90;;;;;;5070535;28;19974;-67
2024/01/06 05:31:53;;;;;;;;;;;5.50;99.90;;;;;;5068083;28;25068;-67
2024/01/06 05:34:20;;;;;;;;;;;5.50;99.90;;;;;;5069133;28;19939;-67
2024/01/06 05:36:46;;;;;;;;;;;5.50;99.90;;;;;;5066427;28;19928;-67
2024/01/06 05:39:13;;;;;;;;;;;5.50;99.90;;;;;;5062707;28;20340;-66
2024/01/06 05:41:39;;;;;;;;;;;5.50;99.90;;;;;;5064043;28;19986;-67
2024/01/06 05:44:06;;;;;;;;;;;5.50;99.90;;;;;;5066658;28;20043;-66
2024/01/06 05:46:34;;;;;;;;;;;5.50;99.90;;;;;;5067871;28;20301;-66
2024/01/06 05:49:02;;;;;;;;;;;5.50;99.90;;;;;;5065143;28;19982;-66
2024/01/06 05:51:28;;;;;;;;;;;5.40;99.90;;;;;;5068678;28;20352;-67
2024/01/06 05:53:55;;;;;;;;;;;5.50;99.90;;;;;;5066207;28;19950;-67
2024/01/06 05:56:25;;;;;;;;;;;5.50;99.90;;;;;;5063554;28;19929;-66
2024/01/06 05:58:52;;;;;;;;;;;5.50;99.90;;;;;;5065661;28;19975;-66
2024/01/06 06:01:19;;;;;;;;;;;5.50;99.90;;;;;;5063237;28;19932;-65
2024/01/06 06:03:45;;;;;;;;;;;5.50;99.90;;;;;;5060047;28;19935;-67
2024/01/06 06:06:13;;;;;;;;;;;5.50;99.90;;;;;;5068169;28;19982;-67
2024/01/06 06:08:41;;;;;;;;;;;5.50;99.90;;;;;;5066629;28;19986;-66
2024/01/06 06:11:10;;;;;;;;;;;5.40;99.90;;;;;;5067963;28;19932;-67
2024/01/06 06:13:37;;;;;;;;;;;5.50;99.90;;;;;;5067437;28;20303;-67
2024/01/06 06:16:04;;;;;;;;;;;5.50;99.90;;;;;;5065304;28;19933;-67
2024/01/06 06:18:30;;;;;;;;;;;5.50;99.90;;;;;;5066698;28;19982;-66
2024/01/06 06:20:57;;;;;;;;;;;5.50;99.90;;;;;;5065719;28;20460;-66
2024/01/06 06:23:25;;;;;;;;;;;5.50;99.90;;;;;;5060508;28;19986;-66
2024/01/06 06:25:51;;;;;;;;;;;5.50;99.90;;;;;;5064124;28;19937;-67
2024/01/06 06:28:18;;;;;;;;;;;5.50;99.90;;;;;;5065970;28;20699;-67
2024/01/06 06:30:44;;;;;;;;;;;5.50;99.90;;;;;;5065027;28;19986;-67
2024/01/06 06:33:11;;;;;;;;;;;5.50;99.90;;;;;;5066214;28;20010;-66
2024/01/06 06:35:38;;;;;;;;;;;5.50;99.90;;;;;;5068527;28;19932;-67
2024/01/06 06:38:04;;;;;;;;;;;5.50;99.90;;;;;;5061895;28;19928;-66
2024/01/06 06:40:32;;;;;;;;;;;5.50;99.90;;;;;;5066303;28;20499;-66
2024/01/06 06:42:59;;;;;;;;;;;5.50;99.90;;;;;;5065378;28;19928;-67
2024/01/06 06:45:25;;;;;;;;;;;5.50;99.90;;;;;;5064782;28;19936;-66
2024/01/06 06:47:52;;;;;;;;;;;5.50;99.90;;;;;;5064946;28;20019;-66
2024/01/06 06:50:19;;;;;;;;;;;5.40;99.90;;;;;;5063769;28;19982;-66
2024/01/06 06:52:46;;;;;;;;;;;5.50;99.90;;;;;;5063008;28;19934;-67
2024/01/06 06:55:13;;;;;;;;;;;5.50;99.90;;;;;;5062287;28;19935;-66
2024/01/06 06:57:41;;;;;;;;;;;5.50;99.90;;;;;;5065458;28;20424;-67
2024/01/06 07:00:08;;;;;;;;;;;5.50;99.90;;;;;;5068421;28;19932;-67
2024/01/06 07:02:34;;;;;;;;;;;5.50;99.90;;;;;;5061974;28;19974;-65
2024/01/06 07:05:01;;;;;;;;;;;5.50;99.90;;;;;;5066744;28;20394;-66
2024/01/06 07:07:27;;;;;;;;;;;5.40;99.90;;;;;;5065119;28;19925;-67
2024/01/06 07:09:54;;;;;;;;;;;5.50;99.90;;;;;;5065548;28;20022;-66
2024/01/06 07:12:20;;;;;;;;;;;5.50;99.90;;;;;;5065167;28;19928;-67
2024/01/06 07:14:48;;;;;;;;;;;5.50;99.90;;;;;;5067300;28;19989;-66
2024/01/06 07:17:15;;;;;;;;;;;5.50;99.90;;;;;;5061508;28;19932;-67
2024/01/06 07:19:41;;;;;;;;;;;5.50;99.90;;;;;;5065772;28;20348;-66
2024/01/06 07:22:08;;;;;;;;;;;5.50;99.90;;;;;;5062996;28;19928;-65
2024/01/06 07:24:36;;;;;;;;;;;5.50;99.90;;;;;;5064353;28;19998;-67
2024/01/06 07:27:03;;;;;;;;;;;5.50;99.90;;;;;;5062527;28;20283;-67
2024/01/06 07:29:29;;;;;;;;;;;5.50;99.90;;;;;;5064520;28;19999;-66
2024/01/06 07:31:57;;;;;;;;;;;5.50;99.90;;;;;;5064373;28;19932;-67
2024/01/06 07:34:25;;;;;;;;;;;5.50;99.90;;;;;;5062382;28;20419;-66
2024/01/06 07:36:51;;;;;;;;;;;5.50;99.90;;;;;;5064436;28;19928;-66
2024/01/06 07:39:18;;;;;;;;;;;5.50;99.90;;;;;;5061417;28;20006;-67
2024/01/06 07:41:44;;;;;;;;;;;5.50;99.90;;;;;;5065021;28;19928;-66
2024/01/06 07:44:11;;;;;;;;;;;5.50;99.90;;;;;;5064005;28;20321;-66
2024/01/06 07:46:38;;;;;;;;;;;5.50;99.90;;;;;;5057501;28;19932;-67
2024/01/06 07:49:06;;;;;;;;;;;5.50;99.90;;;;;;5064040;28;19955;-66
2024/01/06 07:51:34;;;;;;;;;;;5.50;99.90;;;;;;5068705;28;20302;-66
2024/01/06 07:54:01;;;;;;;;;;;5.50;99.90;;;;;;5063547;28;19928;-66
2024/01/06 07:56:27;;;;;;;;;;;5.50;99.90;;;;;;5065306;28;19932;-66
2024/01/06 07:58:54;;;;;;;;;;;5.50;99.90;;;;;;5067349;28;20811;-67
2024/01/06 08:01:21;;;;;;;;;;;5.50;99.90;;;;;;5064816;28;19932;-67
2024/01/06 08:03:47;;;;;;;;;;;5.50;99.90;;;;;;5054198;28;19925;-67
2024/01/06 08:06:15;;;;;;;;;;;5.50;99.90;;;;;;5061870;28;19932;-67
2024/01/06 08:08:42;;;;;;;;;;;5.50;99.90;;;;;;5064295;28;19928;-66
2024/01/06 08:11:08;;;;;;;;;;;5.50;99.90;;;;;;5069847;28;20279;-66
2024/01/06 08:13:35;;;;;;;;;;;5.50;99.90;;;;;;5065522;28;19975;-67
2024/01/06 08:16:01;;;;;;;;;;;5.50;99.90;;;;;;5062114;28;19940;-67
2024/01/06 08:18:28;;;;;;;;;;;5.50;99.90;;;;;;5063526;28;19935;-66
2024/01/06 08:20:55;;;;;;;;;;;5.50;99.90;;;;;;5057435;28;19928;-66
2024/01/06 08:23:22;;;;;;;;;;;5.50;99.90;;;;;;5063570;28;19936;-65
2024/01/06 08:25:49;;;;;;;;;;;5.50;99.90;;;;;;5066996;28;19958;-67
2024/01/06 08:28:16;;;;;;;;;;;5.50;99.90;;;;;;5068379;28;19929;-67
2024/01/06 08:30:42;;;;;;;;;;;5.50;99.90;;;;;;5064463;28;19932;-67
2024/01/06 08:33:09;;;;;;;;;;;5.50;99.90;;;;;;5067361;28;20299;-66
2024/01/06 08:35:40;;;;;;;;;;;5.50;99.90;;;;;;5067018;28;19975;-67
2024/01/06 08:38:06;;;;;;;;;;;5.60;99.90;;;;;;5066785;28;19937;-66
2024/01/06 08:40:34;;;;;;;;;;;5.50;99.90;;;;;;5064563;28;19965;-67
2024/01/06 08:43:01;;;;;;;;;;;5.50;99.90;;;;;;5068044;28;19943;-66
2024/01/06 08:45:27;;;;;;;;;;;5.50;99.90;;;;;;5065475;28;20375;-66
2024/01/06 08:47:54;;;;;;;;;;;5.50;99.90;;;;;;5063745;28;19982;-67
2024/01/06 08:50:20;;;;;;;;;;;5.50;99.90;;;;;;5067769;28;20510;-66
2024/01/06 08:52:47;;;;;;;;;;;5.50;99.90;;;;;;5064384;28;19936;-66
2024/01/06 08:55:13;;;;;;;;;;;5.60;99.90;;;;;;5066702;28;19928;-67
2024/01/06 08:57:41;;;;;;;;;;;5.50;99.90;;;;;;5066447;28;19997;-67
2024/01/06 09:00:09;;;;;;;;;;;5.60;99.90;;;;;;5070897;28;19935;-68
2024/01/06 09:02:35;;;;;;;;;;;5.60;99.90;;;;;;5064236;28;19928;-67
2024/01/06 09:05:02;;;;;;;;;;;5.60;99.90;;;;;;5064094;28;19928;-67
2024/01/06 09:07:28;;;;;;;;;;;5.60;99.90;;;;;;5066038;28;19974;-67
2024/01/06 09:09:55;;;;;;;;;;;5.60;99.90;;;;;;5064776;28;20420;-67
2024/01/06 09:12:21;;;;;;;;;;;5.60;99.90;;;;;;5064866;28;19933;-66
2024/01/06 09:14:49;;;;;;;;;;;5.60;99.90;;;;;;5067094;28;20023;-68
2024/01/06 09:17:16;;;;;;;;;;;5.60;99.90;;;;;;5066568;28;19928;-67
2024/01/06 09:19:43;;;;;;;;;;;5.60;99.90;;;;;;5062386;28;19928;-66
2024/01/06 09:22:09;;;;;;;;;;;5.60;99.90;;;;;;5069572;28;19928;-66
2024/01/06 09:24:36;;;;;;;;;;;5.60;99.90;;;;;;5063767;28;19928;-67
2024/01/06 09:27:03;;;;;;;;;;;5.60;99.90;;;;;;5066432;28;19932;-68
2024/01/06 09:29:30;;;;;;;;;;;5.60;99.90;;;;;;5066060;28;19924;-67
2024/01/06 09:31:57;;;;;;;;;;;5.60;99.90;;;;;;5066665;28;19929;-68
2024/01/06 09:34:24;;;;;;;;;;;5.60;99.90;;;;;;5064667;28;19928;-66
2024/01/06 09:36:50;;;;;;;;;;;5.60;99.90;;;;;;5063000;28;20443;-67
2024/01/06 09:39:17;;;;;;;;;;;5.60;99.90;;;;;;5064105;28;19936;-68
2024/01/06 09:41:44;;;;;;;;;;;5.60;99.90;;;;;;5065665;28;20009;-67
2024/01/06 09:44:10;;;;;;;;;;;5.60;99.90;;;;;;5067952;28;20732;-66
2024/01/06 09:46:40;;;;;;;;;;;5.60;99.90;;;;;;5064053;28;19932;-66
2024/01/06 09:49:09;;;;;;;;;;;5.60;99.90;;;;;;5066344;28;19928;-66
2024/01/06 09:51:37;;;;;;;;;;;5.60;99.90;;;;;;5064239;28;19925;-67
2024/01/06 09:54:07;;;;;;;;;;;5.70;99.90;;;;;;5062733;28;20305;-67
2024/01/06 09:56:34;;;;;;;;;;;5.60;99.90;;;;;;5066232;28;19974;-65
2024/01/06 09:59:01;;;;;;;;;;;5.60;99.90;;;;;;5065309;28;19929;-66
2024/01/06 10:01:27;;;;;;;;;;;5.70;99.90;;;;;;5062593;28;19928;-66
2024/01/06 10:03:54;;;;;;;;;;;5.60;99.90;;;;;;5065896;28;19940;-66
2024/01/06 10:06:21;;;;;;;;;;;5.60;99.90;;;;;;5061795;28;19932;-66
2024/01/06 10:08:49;;;;;;;;;;;5.70;99.90;;;;;;5062222;28;19928;-65
2024/01/06 10:11:16;;;;;;;;;;;5.70;99.90;;;;;;5062410;28;19974;-66
2024/01/06 10:13:42;;;;;;;;;;;5.60;99.90;;;;;;5067204;28;19936;-65
2024/01/06 10:16:09;;;;;;;;;;;5.60;99.90;;;;;;5064534;28;20275;-65
2024/01/06 10:18:36;;;;;;;;;;;5.60;99.90;;;;;;5063608;28;19930;-67
2024/01/06 10:21:04;;;;;;;;;;;5.70;99.90;;;;;;5063771;28;20051;-67
2024/01/06 10:23:32;;;;;;;;;;;5.60;99.90;;;;;;5064078;28;20405;-67
2024/01/06 10:25:59;;;;;;;;;;;5.60;99.90;;;;;;5061954;28;19933;-67
2024/01/06 10:28:25;;;;;;;;;;;5.70;99.90;;;;;;5064496;28;19935;-66
2024/01/06 10:30:52;;;;;;;;;;;5.70;99.90;;;;;;5067757;28;19932;-67
2024/01/06 10:33:20;;;;;;;;;;;5.70;99.90;;;;;;5058009;28;19962;-66
2024/01/06 10:35:46;;;;;;;;;;;5.70;99.90;;;;;;5063142;28;19932;-67
2024/01/06 10:38:13;;;;;;;;;;;5.70;99.90;;;;;;5061503;28;19970;-66
2024/01/06 10:40:41;;;;;;;;;;;5.70;99.90;;;;;;5064284;28;20034;-67
2024/01/06 10:43:08;;;;;;;;;;;5.70;99.90;;;;;;5063107;28;20015;-66
2024/01/06 10:45:34;;;;;;;;;;;5.70;99.90;;;;;;5065489;28;19967;-66
2024/01/06 10:48:03;;;;;;;;;;;5.70;99.90;;;;;;5061841;28;19929;-65
2024/01/06 10:50:29;;;;;;;;;;;5.70;99.90;;;;;;5063359;28;19939;-66
2024/01/06 10:52:57;;;;;;;;;;;5.70;99.90;;;;;;5062870;28;19932;-67
2024/01/06 10:55:23;;;;;;;;;;;5.70;99.90;;;;;;5065122;28;20475;-67
2024/01/06 10:57:52;;;;;;;;;;;5.70;99.90;;;;;;5063275;28;19943;-67
2024/01/06 11:00:19;;;;;;;;;;;5.70;99.90;;;;;;5068010;28;20348;-67
2024/01/06 11:02:46;;;;;;;;;;;5.80;99.90;;;;;;5062305;28;19928;-67
2024/01/06 11:05:14;;;;;;;;;;;5.80;99.90;;;;;;5061857;28;20030;-67
2024/01/06 11:07:41;;;;;;;;;;;5.80;99.90;;;;;;5058765;28;19933;-66
2024/01/06 11:10:11;;;;;;;;;;;5.80;99.90;;;;;;5063811;28;19985;-66
2024/01/06 11:12:37;;;;;;;;;;;5.80;99.90;;;;;;5064918;28;19932;-66
2024/01/06 11:15:06;;;;;;;;;;;5.80;99.90;;;;;;5063715;28;19936;-65
2024/01/06 11:17:53;;;;;;;;;;;5.70;99.90;;;;;;5062804;28;19935;-67
2024/01/06 11:20:19;;;;;;;;;;;5.70;99.90;;;;;;5062565;28;20305;-67
2024/01/06 11:22:46;;;;;;;;;;;5.80;99.90;;;;;;5060843;28;19935;-67
2024/01/06 11:25:15;;;;;;;;;;;5.80;99.90;;;;;;5061977;28;19993;-66
2024/01/06 11:27:42;;;;;;;;;;;5.80;99.90;;;;;;5066017;28;19952;-65
2024/01/06 11:30:19;;;;;;;;;;;5.80;99.90;;;;;;5064240;28;20410;-65
2024/01/06 11:32:46;;;;;;;;;;;5.80;99.90;;;;;;5061964;28;19943;-67
2024/01/06 11:35:14;;;;;;;;;;;5.80;99.90;;;;;;5061622;28;19924;-67
2024/01/06 11:37:59;;;;;;;;;;;5.80;99.90;;;;;;5059626;28;19936;-66
2024/01/06 11:40:32;;;;;;;;;;;5.80;99.90;;;;;;5063107;28;19929;-67
2024/01/06 11:42:59;;;;;;;;;;;5.80;99.90;;;;;;5062654;28;20488;-66
2024/01/06 11:45:28;;;;;;;;;;;5.80;99.90;;;;;;5061586;28;19936;-66
2024/01/06 11:47:55;;;;;;;;;;;5.80;99.90;;;;;;5059586;28;19940;-66
2024/01/06 11:50:23;;;;;;;;;;;5.90;99.90;;;;;;5065184;28;19936;-66
2024/01/06 11:52:50;;;;;;;;;;;5.80;99.90;;;;;;5057952;28;20044;-66
2024/01/06 11:55:18;;;;;;;;;;;5.90;99.90;;;;;;5061440;28;19929;-66
2024/01/06 11:57:44;;;;;;;;;;;5.80;99.90;;;;;;5060610;28;19936;-66
2024/01/06 12:00:13;;;;;;;;;;;5.90;99.90;;;;;;5066286;28;19929;-66
2024/01/06 12:02:41;;;;;;;;;;;5.90;99.90;;;;;;5065233;28;20105;-66
2024/01/06 12:05:13;;;;;;;;;;;5.90;99.90;;;;;;5065079;28;19945;-67
2024/01/06 12:07:41;;;;;;;;;;;5.90;99.90;;;;;;5063638;28;20020;-64
2024/01/06 12:10:08;;;;;;;;;;;5.90;99.90;;;;;;5066033;28;19982;-66
2024/01/06 12:12:35;;;;;;;;;;;5.90;99.90;;;;;;5066885;28;20043;-67
2024/01/06 12:15:01;;;;;;;;;;;5.90;99.90;;;;;;5069472;28;19974;-66
2024/01/06 12:17:29;;;;;;;;;;;5.90;99.90;;;;;;5063017;28;20291;-67
2024/01/06 12:19:57;;;;;;;;;;;5.90;99.90;;;;;;5063692;28;19934;-66
2024/01/06 12:22:24;;;;;;;;;;;5.90;99.90;;;;;;5067372;28;19928;-66
2024/01/06 12:24:50;;;;;;;;;;;5.90;99.90;;;;;;5066369;28;19932;-66
2024/01/06 12:27:18;;;;;;;;;;;5.90;99.90;;;;;;5066775;28;20623;-67
2024/01/06 12:29:44;;;;;;;;;;;6.00;99.90;;;;;;5066333;28;19977;-67
2024/01/06 12:32:13;;;;;;;;;;;6.00;99.90;;;;;;5064692;28;19954;-66
2024/01/06 12:34:39;;;;;;;;;;;6.00;99.90;;;;;;5067110;28;19974;-66
2024/01/06 12:37:08;;;;;;;;;;;6.00;99.90;;;;;;5063317;28;20421;-66
2024/01/06 12:39:35;;;;;;;;;;;6.00;99.90;;;;;;5064280;28;20019;-65
2024/01/06 12:42:01;;;;;;;;;;;6.00;99.90;;;;;;5065628;28;20465;-67
2024/01/06 12:44:28;;;;;;;;;;;6.00;99.90;;;;;;5068455;28;19924;-67
2024/01/06 12:46:54;;;;;;;;;;;6.00;99.90;;;;;;5064608;28;20044;-67
2024/01/06 12:49:21;;;;;;;;;;;6.00;99.90;;;;;;5066848;28;20025;-66
2024/01/06 12:51:47;;;;;;;;;;;6.00;99.90;;;;;;5068202;28;19929;-67
2024/01/06 12:54:15;;;;;;;;;;;6.10;99.90;;;;;;5064742;28;20480;-67
2024/01/06 12:56:42;;;;;;;;;;;6.10;99.90;;;;;;5065054;28;19982;-67
2024/01/06 12:59:08;;;;;;;;;;;6.10;99.90;;;;;;5067815;28;19928;-67
2024/01/06 13:01:35;;;;;;;;;;;6.10;99.90;;;;;;5067214;28;19928;-67
2024/01/06 13:04:01;;;;;;;;;;;6.10;99.90;;;;;;5061544;28;19928;-65
2024/01/06 13:06:29;;;;;;;;;;;6.10;99.90;;;;;;5065836;28;20390;-66
2024/01/06 13:08:56;;;;;;;;;;;6.10;99.90;;;;;;5062358;28;19932;-65
2024/01/06 13:11:24;;;;;;;;;;;6.10;99.90;;;;;;5067566;28;19929;-67
2024/01/06 13:13:51;;;;;;;;;;;6.20;99.90;;;;;;5067923;28;20671;-68
2024/01/06 13:16:17;;;;;;;;;;;6.10;99.90;;;;;;5065475;28;19968;-68
2024/01/06 13:18:44;;;;;;;;;;;6.20;99.90;;;;;;5067083;28;19970;-67
2024/01/06 13:21:10;;;;;;;;;;;6.20;99.90;;;;;;5064343;28;19974;-67
2024/01/06 13:23:37;;;;;;;;;;;6.20;99.90;;;;;;5063195;28;19929;-67
2024/01/06 13:26:04;;;;;;;;;;;6.20;99.90;;;;;;5063036;28;19932;-67
2024/01/06 13:28:31;;;;;;;;;;;6.20;99.90;;;;;;5066005;28;20550;-67
2024/01/06 13:30:58;;;;;;;;;;;6.20;99.90;;;;;;5065535;28;19970;-67
2024/01/06 13:33:24;;;;;;;;;;;6.20;99.90;;;;;;5067565;28;19993;-66
2024/01/06 13:35:51;;;;;;;;;;;6.20;99.90;;;;;;5066775;28;19981;-66
2024/01/06 13:38:17;;;;;;;;;;;6.20;99.90;;;;;;5064963;28;20047;-67
2024/01/06 13:40:44;;;;;;;;;;;6.20;99.90;;;;;;5062057;28;19929;-66
2024/01/06 13:43:15;;;;;;;;;;;6.20;99.90;;;;;;5064859;28;19928;-67
2024/01/06 13:45:44;;;;;;;;;;;6.20;99.90;;;;;;5062011;28;20463;-67
2024/01/06 13:48:11;;;;;;;;;;;6.20;99.90;;;;;;5063554;28;19940;-67
2024/01/06 13:50:37;;;;;;;;;;;6.20;99.90;;;;;;5065261;28;19948;-67
2024/01/06 13:53:06;;;;;;;;;;;6.20;99.90;;;;;;5064997;28;20006;-66
2024/01/06 13:55:33;;;;;;;;;;;6.20;99.90;;;;;;5060690;28;20023;-67
2024/01/06 13:57:59;;;;;;;;;;;6.20;99.90;;;;;;5064518;28;20026;-67
2024/01/06 14:00:27;;;;;;;;;;;6.20;99.90;;;;;;5064858;28;19935;-67
2024/01/06 14:02:54;;;;;;;;;;;6.20;99.90;;;;;;5064443;28;19932;-65
2024/01/06 14:05:21;;;;;;;;;;;6.20;99.90;;;;;;5064469;28;20061;-66
2024/01/06 14:07:50;;;;;;;;;;;6.30;99.90;;;;;;5061782;28;20615;-64
2024/01/06 14:10:17;;;;;;;;;;;6.30;99.90;;;;;;5065677;28;19924;-66
2024/01/06 14:12:43;;;;;;;;;;;6.30;99.90;;;;;;5066450;28;20390;-66
2024/01/06 14:15:10;;;;;;;;;;;6.30;99.90;;;;;;5064976;28;19932;-66
2024/01/06 14:17:37;;;;;;;;;;;6.30;99.90;;;;;;5063438;28;19935;-65
2024/01/06 14:20:05;;;;;;;;;;;6.30;99.90;;;;;;5062677;28;19928;-66
2024/01/06 14:22:32;;;;;;;;;;;6.30;99.90;;;;;;5062421;28;19929;-66
2024/01/06 14:24:58;;;;;;;;;;;6.30;99.90;;;;;;5060730;28;19932;-66
2024/01/06 14:27:25;;;;;;;;;;;6.30;99.90;;;;;;5060554;28;20012;-66
2024/01/06 14:29:55;;;;;;;;;;;6.30;99.90;;;;;;5062068;28;19935;-66